sensor_id;sensor_type;location;lat;lon;timestamp;pressure;altitude;pressure_sealevel;temperature;humidity
71974;BME280;59840;52.122;5.404;2023-02-28T00:00:21;103336.41;;;-0.05;90.73
71974;BME280;59840;52.122;5.404;2023-02-28T00:02:48;103335.34;;;-0.03;90.66
71974;BME280;59840;52.122;5.404;2023-02-28T00:05:18;103330.97;;;-0.02;90.54
71974;BME280;59840;52.122;5.404;2023-02-28T00:07:45;103325.06;;;-0.04;90.01
71974;BME280;59840;52.122;5.404;2023-02-28T00:10:20;103335.34;;;-0.03;89.83
71974;BME280;59840;52.122;5.404;2023-02-28T00:12:50;103343.59;;;0.03;90.15
71974;BME280;59840;52.122;5.404;2023-02-28T00:15:17;103337.25;;;0.07;90.50
71974;BME280;59840;52.122;5.404;2023-02-28T00:17:44;103346.47;;;0.11;90.62
71974;BME280;59840;52.122;5.404;2023-02-28T00:20:12;103341.25;;;0.11;90.65
71974;BME280;59840;52.122;5.404;2023-02-28T00:22:43;103339.16;;;0.16;90.89
71974;BME280;59840;52.122;5.404;2023-02-28T00:25:12;103338.94;;;0.19;90.79
71974;BME280;59840;52.122;5.404;2023-02-28T00:27:39;103340.59;;;0.20;90.79
71974;BME280;59840;52.122;5.404;2023-02-28T00:30:08;103342.03;;;0.24;90.71
71974;BME280;59840;52.122;5.404;2023-02-28T00:32:35;103344.38;;;0.27;90.57
71974;BME280;59840;52.122;5.404;2023-02-28T00:35:02;103334.72;;;0.29;91.29
71974;BME280;59840;52.122;5.404;2023-02-28T00:37:29;103341.34;;;0.33;91.68
71974;BME280;59840;52.122;5.404;2023-02-28T00:39:55;103341.06;;;0.36;91.59
71974;BME280;59840;52.122;5.404;2023-02-28T00:42:23;103340.72;;;0.41;92.28
71974;BME280;59840;52.122;5.404;2023-02-28T00:44:50;103330.13;;;0.44;92.06
71974;BME280;59840;52.122;5.404;2023-02-28T00:47:16;103331.44;;;0.49;92.23
71974;BME280;59840;52.122;5.404;2023-02-28T00:49:43;103338.16;;;0.52;92.59
71974;BME280;59840;52.122;5.404;2023-02-28T00:52:10;103335.22;;;0.56;93.12
71974;BME280;59840;52.122;5.404;2023-02-28T00:54:36;103329.56;;;0.62;92.58
71974;BME280;59840;52.122;5.404;2023-02-28T00:57:03;103331.69;;;0.69;92.95
71974;BME280;59840;52.122;5.404;2023-02-28T00:59:29;103332.84;;;0.76;92.80
71974;BME280;59840;52.122;5.404;2023-02-28T01:01:56;103336.38;;;0.75;92.74
71974;BME280;59840;52.122;5.404;2023-02-28T01:04:22;103336.38;;;0.75;93.33
71974;BME280;59840;52.122;5.404;2023-02-28T01:06:49;103337.09;;;0.77;92.98
71974;BME280;59840;52.122;5.404;2023-02-28T01:09:16;103337.81;;;0.79;93.25
71974;BME280;59840;52.122;5.404;2023-02-28T01:11:43;103338.41;;;0.82;93.13
71974;BME280;59840;52.122;5.404;2023-02-28T01:14:14;103337.34;;;0.85;93.24
71974;BME280;59840;52.122;5.404;2023-02-28T01:16:42;103338.03;;;0.87;93.09
71974;BME280;59840;52.122;5.404;2023-02-28T01:19:09;103332.72;;;0.88;93.13
71974;BME280;59840;52.122;5.404;2023-02-28T01:21:35;103328.34;;;0.89;93.03
71974;BME280;59840;52.122;5.404;2023-02-28T01:24:05;103328.25;;;0.90;93.37
71974;BME280;59840;52.122;5.404;2023-02-28T01:26:35;103326.22;;;0.94;93.10
71974;BME280;59840;52.122;5.404;2023-02-28T01:29:01;103320.78;;;0.97;93.06
71974;BME280;59840;52.122;5.404;2023-02-28T01:31:28;103320.78;;;0.97;92.89
71974;BME280;59840;52.122;5.404;2023-02-28T01:33:55;103326.00;;;0.97;93.01
71974;BME280;59840;52.122;5.404;2023-02-28T01:36:23;103325.16;;;0.96;92.47
71974;BME280;59840;52.122;5.404;2023-02-28T01:38:50;103323.41;;;0.97;92.42
71974;BME280;59840;52.122;5.404;2023-02-28T01:41:24;103321.50;;;0.99;92.95
71974;BME280;59840;52.122;5.404;2023-02-28T01:43:58;103318.78;;;1.00;92.46
71974;BME280;59840;52.122;5.404;2023-02-28T01:46:25;103317.00;;;1.01;92.16
71974;BME280;59840;52.122;5.404;2023-02-28T01:51:33;103312.53;;;1.03;92.55
71974;BME280;59840;52.122;5.404;2023-02-28T01:54:09;103316.63;;;1.06;92.68
71974;BME280;59840;52.122;5.404;2023-02-28T01:56:44;103311.44;;;1.06;92.38
71974;BME280;59840;52.122;5.404;2023-02-28T01:59:17;103316.38;;;1.09;92.69
71974;BME280;59840;52.122;5.404;2023-02-28T02:01:47;103305.03;;;1.10;92.68
71974;BME280;59840;52.122;5.404;2023-02-28T02:04:13;103305.88;;;1.10;92.56
71974;BME280;59840;52.122;5.404;2023-02-28T02:06:43;103303.97;;;1.12;92.75
71974;BME280;59840;52.122;5.404;2023-02-28T02:09:11;103303.03;;;1.13;92.81
71974;BME280;59840;52.122;5.404;2023-02-28T02:11:40;103290.84;;;1.14;93.23
71974;BME280;59840;52.122;5.404;2023-02-28T02:14:28;103294.97;;;1.16;93.02
71974;BME280;59840;52.122;5.404;2023-02-28T02:17:22;103287.19;;;1.16;93.20
71974;BME280;59840;52.122;5.404;2023-02-28T02:25:42;103288.22;;;1.25;93.15
71974;BME280;59840;52.122;5.404;2023-02-28T02:34:00;103297.09;;;1.33;92.93
71974;BME280;59840;52.122;5.404;2023-02-28T02:36:35;103309.84;;;1.37;92.75
71974;BME280;59840;52.122;5.404;2023-02-28T02:42:11;103299.88;;;1.42;92.49
71974;BME280;59840;52.122;5.404;2023-02-28T02:44:46;103304.00;;;1.44;92.48
71974;BME280;59840;52.122;5.404;2023-02-28T02:47:17;103306.47;;;1.46;92.71
71974;BME280;59840;52.122;5.404;2023-02-28T02:49:51;103306.47;;;1.46;93.10
71974;BME280;59840;52.122;5.404;2023-02-28T02:52:23;103294.19;;;1.48;92.95
71974;BME280;59840;52.122;5.404;2023-02-28T02:54:54;103303.75;;;1.47;93.23
71974;BME280;59840;52.122;5.404;2023-02-28T02:57:27;103306.13;;;1.50;93.06
71974;BME280;59840;52.122;5.404;2023-02-28T02:59:56;103304.78;;;1.56;93.26
71974;BME280;59840;52.122;5.404;2023-02-28T03:02:23;103301.38;;;1.55;93.52
71974;BME280;59840;52.122;5.404;2023-02-28T03:04:57;103291.78;;;1.56;93.61
71974;BME280;59840;52.122;5.404;2023-02-28T03:07:28;103302.19;;;1.56;93.45
71974;BME280;59840;52.122;5.404;2023-02-28T03:09:56;103305.75;;;1.55;93.81
71974;BME280;59840;52.122;5.404;2023-02-28T03:12:41;103312.59;;;1.56;93.72
71974;BME280;59840;52.122;5.404;2023-02-28T03:15:26;103307.16;;;1.59;93.77
71974;BME280;59840;52.122;5.404;2023-02-28T03:18:10;103303.59;;;1.60;94.03
71974;BME280;59840;52.122;5.404;2023-02-28T03:20:59;103298.63;;;1.57;94.07
71974;BME280;59840;52.122;5.404;2023-02-28T03:26:23;103301.94;;;1.59;94.12
71974;BME280;59840;52.122;5.404;2023-02-28T03:29:02;103306.06;;;1.61;94.28
71974;BME280;59840;52.122;5.404;2023-02-28T03:31:35;103308.31;;;1.66;93.97
71974;BME280;59840;52.122;5.404;2023-02-28T03:34:08;103308.56;;;1.63;94.59
71974;BME280;59840;52.122;5.404;2023-02-28T03:36:39;103305.00;;;1.64;94.46
71974;BME280;59840;52.122;5.404;2023-02-28T03:39:24;103317.06;;;1.65;94.10
71974;BME280;59840;52.122;5.404;2023-02-28T03:42:02;103311.03;;;1.64;94.30
71974;BME280;59840;52.122;5.404;2023-02-28T03:44:38;103314.59;;;1.63;93.92
71974;BME280;59840;52.122;5.404;2023-02-28T03:47:13;103314.22;;;1.68;93.53
71974;BME280;59840;52.122;5.404;2023-02-28T03:49:57;103318.22;;;1.72;93.43
71974;BME280;59840;52.122;5.404;2023-02-28T03:52:29;103316.44;;;1.73;93.38
71974;BME280;59840;52.122;5.404;2023-02-28T03:55:02;103321.78;;;1.71;93.34
71974;BME280;59840;52.122;5.404;2023-02-28T04:00:27;103324.25;;;1.73;92.45
71974;BME280;59840;52.122;5.404;2023-02-28T04:02:56;103324.09;;;1.74;92.09
71974;BME280;59840;52.122;5.404;2023-02-28T04:05:23;103322.47;;;1.73;91.47
71974;BME280;59840;52.122;5.404;2023-02-28T04:07:50;103319.88;;;1.73;91.36
71974;BME280;59840;52.122;5.404;2023-02-28T04:10:17;103319.88;;;1.73;90.99
71974;BME280;59840;52.122;5.404;2023-02-28T04:12:44;103317.28;;;1.73;91.12
71974;BME280;59840;52.122;5.404;2023-02-28T04:15:10;103325.09;;;1.73;90.87
71974;BME280;59840;52.122;5.404;2023-02-28T04:17:37;103323.69;;;1.69;90.13
71974;BME280;59840;52.122;5.404;2023-02-28T04:20:05;103320.50;;;1.65;88.93
71974;BME280;59840;52.122;5.404;2023-02-28T04:22:36;103322.50;;;1.62;87.12
71974;BME280;59840;52.122;5.404;2023-02-28T04:25:04;103326.19;;;1.59;86.15
71974;BME280;59840;52.122;5.404;2023-02-28T04:27:31;103323.84;;;1.56;85.42
71974;BME280;59840;52.122;5.404;2023-02-28T04:29:58;103336.97;;;1.55;85.91
71974;BME280;59840;52.122;5.404;2023-02-28T04:32:25;103330.34;;;1.51;85.07
71974;BME280;59840;52.122;5.404;2023-02-28T04:34:51;103328.69;;;1.50;84.72
71974;BME280;59840;52.122;5.404;2023-02-28T04:37:18;103332.25;;;1.49;84.39
71974;BME280;59840;52.122;5.404;2023-02-28T04:39:44;103336.03;;;1.45;84.75
71974;BME280;59840;52.122;5.404;2023-02-28T04:42:11;103336.03;;;1.45;84.53
71974;BME280;59840;52.122;5.404;2023-02-28T04:44:38;103337.94;;;1.43;84.17
71974;BME280;59840;52.122;5.404;2023-02-28T04:47:05;103337.69;;;1.46;84.54
71974;BME280;59840;52.122;5.404;2023-02-28T04:49:32;103349.75;;;1.47;83.99
71974;BME280;59840;52.122;5.404;2023-02-28T04:51:58;103336.28;;;1.42;84.31
71974;BME280;59840;52.122;5.404;2023-02-28T04:54:25;103331.34;;;1.39;83.82
71974;BME280;59840;52.122;5.404;2023-02-28T04:56:51;103329.94;;;1.34;84.21
71974;BME280;59840;52.122;5.404;2023-02-28T04:59:18;103331.84;;;1.32;84.69
71974;BME280;59840;52.122;5.404;2023-02-28T05:01:46;103339.88;;;1.29;85.03
71974;BME280;59840;52.122;5.404;2023-02-28T05:04:13;103339.75;;;1.31;84.90
71974;BME280;59840;52.122;5.404;2023-02-28T05:06:40;103337.53;;;1.26;84.84
71974;BME280;59840;52.122;5.404;2023-02-28T05:09:06;103333.63;;;1.21;85.67
71974;BME280;59840;52.122;5.404;2023-02-28T05:11:34;103326.19;;;1.16;85.94
71974;BME280;59840;52.122;5.404;2023-02-28T05:14:08;103330.69;;;1.14;86.36
71974;BME280;59840;52.122;5.404;2023-02-28T05:16:35;103332.22;;;1.17;87.00
71974;BME280;59840;52.122;5.404;2023-02-28T05:19:02;103332.56;;;1.12;87.10
71974;BME280;59840;52.122;5.404;2023-02-28T05:21:32;103336.81;;;1.13;87.99
71974;BME280;59840;52.122;5.404;2023-02-28T05:24:01;103346.28;;;1.14;87.65
71974;BME280;59840;52.122;5.404;2023-02-28T05:26:29;103342.03;;;1.13;88.25
71974;BME280;59840;52.122;5.404;2023-02-28T05:28:56;103347.59;;;1.09;88.69
71974;BME280;59840;52.122;5.404;2023-02-28T05:31:23;103345.81;;;1.09;88.78
71974;BME280;59840;52.122;5.404;2023-02-28T05:33:50;103338.97;;;1.08;88.66
71974;BME280;59840;52.122;5.404;2023-02-28T05:36:16;103339.78;;;1.09;89.00
71974;BME280;59840;52.122;5.404;2023-02-28T05:38:46;103337.31;;;1.07;89.02
71974;BME280;59840;52.122;5.404;2023-02-28T05:41:12;103342.75;;;1.04;89.06
71974;BME280;59840;52.122;5.404;2023-02-28T05:43:39;103341.13;;;1.03;88.93
71974;BME280;59840;52.122;5.404;2023-02-28T05:46:07;103340.13;;;1.04;89.16
71974;BME280;59840;52.122;5.404;2023-02-28T05:48:36;103335.91;;;1.03;89.12
71974;BME280;59840;52.122;5.404;2023-02-28T05:51:04;103344.66;;;1.02;88.95
71974;BME280;59840;52.122;5.404;2023-02-28T05:53:31;103340.41;;;1.01;89.25
71974;BME280;59840;52.122;5.404;2023-02-28T05:55:58;103348.44;;;0.98;89.25
71974;BME280;59840;52.122;5.404;2023-02-28T05:58:25;103352.00;;;0.97;89.67
71974;BME280;59840;52.122;5.404;2023-02-28T06:00:55;103347.50;;;0.88;89.99
71974;BME280;59840;52.122;5.404;2023-02-28T06:03:22;103344.06;;;0.76;90.20
71974;BME280;59840;52.122;5.404;2023-02-28T06:05:48;103346.44;;;0.68;91.03
71974;BME280;59840;52.122;5.404;2023-02-28T06:08:15;103347.28;;;0.69;91.24
71974;BME280;59840;52.122;5.404;2023-02-28T06:10:41;103339.47;;;0.69;91.47
71974;BME280;59840;52.122;5.404;2023-02-28T06:13:08;103345.97;;;0.63;91.91
71974;BME280;59840;52.122;5.404;2023-02-28T06:15:34;103340.63;;;0.53;92.07
71974;BME280;59840;52.122;5.404;2023-02-28T06:18:01;103335.78;;;0.49;92.21
71974;BME280;59840;52.122;5.404;2023-02-28T06:20:28;103344.88;;;0.43;92.81
71974;BME280;59840;52.122;5.404;2023-02-28T06:22:56;103337.44;;;0.39;93.26
71974;BME280;59840;52.122;5.404;2023-02-28T06:25:26;103329.84;;;0.36;93.01
71974;BME280;59840;52.122;5.404;2023-02-28T06:27:54;103327.88;;;0.39;93.41
71974;BME280;59840;52.122;5.404;2023-02-28T06:30:21;103327.75;;;0.41;93.74
71974;BME280;59840;52.122;5.404;2023-02-28T06:32:53;103336.59;;;0.38;93.55
71974;BME280;59840;52.122;5.404;2023-02-28T06:35:21;103340.25;;;0.36;93.54
71974;BME280;59840;52.122;5.404;2023-02-28T06:37:48;103342.16;;;0.33;93.82
71974;BME280;59840;52.122;5.404;2023-02-28T06:40:14;103338.75;;;0.33;94.12
71974;BME280;59840;52.122;5.404;2023-02-28T06:42:41;103341.44;;;0.31;93.99
71974;BME280;59840;52.122;5.404;2023-02-28T06:45:09;103338.75;;;0.33;94.13
71974;BME280;59840;52.122;5.404;2023-02-28T06:47:38;103336.97;;;0.33;94.39
71974;BME280;59840;52.122;5.404;2023-02-28T06:50:06;103336.03;;;0.35;94.55
71974;BME280;59840;52.122;5.404;2023-02-28T06:52:33;103331.63;;;0.35;94.73
71974;BME280;59840;52.122;5.404;2023-02-28T06:55:04;103341.06;;;0.36;94.88
71974;BME280;59840;52.122;5.404;2023-02-28T06:57:32;103347.69;;;0.40;95.17
71974;BME280;59840;52.122;5.404;2023-02-28T07:00:00;103349.00;;;0.46;95.22
71974;BME280;59840;52.122;5.404;2023-02-28T07:02:27;103351.16;;;0.52;95.49
71974;BME280;59840;52.122;5.404;2023-02-28T07:04:54;103354.09;;;0.58;95.15
71974;BME280;59840;52.122;5.404;2023-02-28T07:07:21;103354.59;;;0.63;95.04
71974;BME280;59840;52.122;5.404;2023-02-28T07:09:48;103349.16;;;0.66;94.99
71974;BME280;59840;52.122;5.404;2023-02-28T07:12:15;103360.63;;;0.64;95.18
71974;BME280;59840;52.122;5.404;2023-02-28T07:14:41;103359.78;;;0.63;95.58
71974;BME280;59840;52.122;5.404;2023-02-28T07:17:09;103352.59;;;0.67;95.36
71974;BME280;59840;52.122;5.404;2023-02-28T07:19:38;103355.53;;;0.74;95.41
71974;BME280;59840;52.122;5.404;2023-02-28T07:22:05;103347.38;;;0.78;95.23
71974;BME280;59840;52.122;5.404;2023-02-28T07:24:32;103360.00;;;0.83;94.90
71974;BME280;59840;52.122;5.404;2023-02-28T07:26:58;103365.44;;;0.80;95.04
71974;BME280;59840;52.122;5.404;2023-02-28T07:29:25;103364.63;;;0.79;95.40
71974;BME280;59840;52.122;5.404;2023-02-28T07:31:52;103368.75;;;0.82;95.48
71974;BME280;59840;52.122;5.404;2023-02-28T07:34:20;103362.03;;;0.90;95.21
71974;BME280;59840;52.122;5.404;2023-02-28T07:36:47;103352.69;;;0.99;94.83
71974;BME280;59840;52.122;5.404;2023-02-28T07:39:13;103349.59;;;1.05;94.66
71974;BME280;59840;52.122;5.404;2023-02-28T07:41:40;103355.38;;;1.09;94.97
71974;BME280;59840;52.122;5.404;2023-02-28T07:44:10;103363.91;;;1.11;95.01
71974;BME280;59840;52.122;5.404;2023-02-28T07:46:37;103367.19;;;1.13;95.24
71974;BME280;59840;52.122;5.404;2023-02-28T07:49:04;103373.34;;;1.12;95.42
71974;BME280;59840;52.122;5.404;2023-02-28T07:51:31;103369.69;;;1.14;95.60
71974;BME280;59840;52.122;5.404;2023-02-28T07:53:58;103367.69;;;1.18;95.69
71974;BME280;59840;52.122;5.404;2023-02-28T07:56:25;103365.44;;;1.24;95.70
71974;BME280;59840;52.122;5.404;2023-02-28T07:58:51;103367.53;;;1.30;95.37
71974;BME280;59840;52.122;5.404;2023-02-28T08:01:18;103371.88;;;1.41;95.22
71974;BME280;59840;52.122;5.404;2023-02-28T08:03:45;103364.28;;;1.49;95.40
71974;BME280;59840;52.122;5.404;2023-02-28T08:06:19;103371.59;;;1.66;94.96
71974;BME280;59840;52.122;5.404;2023-02-28T08:08:46;103380.94;;;1.69;94.09
71974;BME280;59840;52.122;5.404;2023-02-28T08:11:13;103390.53;;;1.68;93.84
71974;BME280;59840;52.122;5.404;2023-02-28T08:13:40;103390.81;;;1.75;93.66
71974;BME280;59840;52.122;5.404;2023-02-28T08:16:08;103388.19;;;1.86;93.67
71974;BME280;59840;52.122;5.404;2023-02-28T08:18:35;103381.53;;;1.93;93.95
71974;BME280;59840;52.122;5.404;2023-02-28T08:21:07;103394.31;;;1.96;93.38
71974;BME280;59840;52.122;5.404;2023-02-28T08:23:34;103402.38;;;1.93;93.11
71974;BME280;59840;52.122;5.404;2023-02-28T08:26:02;103396.91;;;1.96;93.29
71974;BME280;59840;52.122;5.404;2023-02-28T08:28:28;103388.09;;;2.09;92.73
71974;BME280;59840;52.122;5.404;2023-02-28T08:30:55;103393.50;;;2.17;92.24
71974;BME280;59840;52.122;5.404;2023-02-28T08:33:23;103398.59;;;2.18;91.25
71974;BME280;59840;52.122;5.404;2023-02-28T08:35:53;103389.44;;;2.24;91.18
71974;BME280;59840;52.122;5.404;2023-02-28T08:38:20;103384.81;;;2.27;90.94
71974;BME280;59840;52.122;5.404;2023-02-28T08:40:47;103391.03;;;2.36;90.75
71974;BME280;59840;52.122;5.404;2023-02-28T08:43:13;103395.31;;;2.37;89.86
71974;BME280;59840;52.122;5.404;2023-02-28T08:45:40;103391.28;;;2.33;89.87
71974;BME280;59840;52.122;5.404;2023-02-28T08:48:07;103379.84;;;2.45;89.29
71974;BME280;59840;52.122;5.404;2023-02-28T08:50:33;103388.53;;;2.55;89.04
71974;BME280;59840;52.122;5.404;2023-02-28T08:53:00;103385.75;;;2.68;89.07
71974;BME280;59840;52.122;5.404;2023-02-28T08:55:26;103373.28;;;2.72;87.77
71974;BME280;59840;52.122;5.404;2023-02-28T08:57:53;103380.84;;;2.75;87.29
71974;BME280;59840;52.122;5.404;2023-02-28T09:00:21;103383.69;;;2.72;86.64
71974;BME280;59840;52.122;5.404;2023-02-28T09:02:48;103390.44;;;2.74;85.59
71974;BME280;59840;52.122;5.404;2023-02-28T09:05:15;103382.91;;;2.81;85.13
71974;BME280;59840;52.122;5.404;2023-02-28T09:07:41;103384.47;;;2.93;84.41
71974;BME280;59840;52.122;5.404;2023-02-28T09:10:09;103381.91;;;3.02;83.03
71974;BME280;59840;52.122;5.404;2023-02-28T09:12:35;103380.84;;;3.24;82.69
71974;BME280;59840;52.122;5.404;2023-02-28T09:15:03;103371.03;;;3.57;80.69
71974;BME280;59840;52.122;5.404;2023-02-28T09:17:29;103379.28;;;3.81;76.69
71974;BME280;59840;52.122;5.404;2023-02-28T09:19:57;103382.72;;;4.11;77.71
71974;BME280;59840;52.122;5.404;2023-02-28T09:22:24;103384.09;;;4.15;73.71
71974;BME280;59840;52.122;5.404;2023-02-28T09:24:51;103377.78;;;3.98;72.06
71974;BME280;59840;52.122;5.404;2023-02-28T09:27:18;103372.00;;;4.04;71.69
71974;BME280;59840;52.122;5.404;2023-02-28T09:29:45;103379.97;;;4.12;72.08
71974;BME280;59840;52.122;5.404;2023-02-28T09:32:11;103376.69;;;4.10;70.60
71974;BME280;59840;52.122;5.404;2023-02-28T09:34:38;103373.09;;;3.92;70.19
71974;BME280;59840;52.122;5.404;2023-02-28T09:37:05;103371.75;;;3.78;67.68
71974;BME280;59840;52.122;5.404;2023-02-28T09:39:31;103386.88;;;3.75;66.17
71974;BME280;59840;52.122;5.404;2023-02-28T09:41:58;103381.88;;;3.81;65.16
71974;BME280;59840;52.122;5.404;2023-02-28T09:44:41;103382.44;;;3.94;66.55
71974;BME280;59840;52.122;5.404;2023-02-28T09:47:16;103375.88;;;3.81;62.71
71974;BME280;59840;52.122;5.404;2023-02-28T09:49:47;103383.97;;;3.87;64.42
71974;BME280;59840;52.122;5.404;2023-02-28T09:52:17;103383.84;;;3.98;64.32
71974;BME280;59840;52.122;5.404;2023-02-28T09:54:45;103392.91;;;4.14;63.95
71974;BME280;59840;52.122;5.404;2023-02-28T09:57:32;103386.25;;;4.38;62.40
71974;BME280;59840;52.122;5.404;2023-02-28T10:05:30;103383.88;;;4.92;62.31
71974;BME280;59840;52.122;5.404;2023-02-28T10:08:27;103385.84;;;5.17;63.64
71974;BME280;59840;52.122;5.404;2023-02-28T10:10:57;103378.75;;;5.27;60.51
71974;BME280;59840;52.122;5.404;2023-02-28T10:16:38;103373.94;;;5.50;58.84
71974;BME280;59840;52.122;5.404;2023-02-28T10:22:12;103358.94;;;5.60;56.74
71974;BME280;59840;52.122;5.404;2023-02-28T10:24:47;103361.94;;;5.48;56.53
71974;BME280;59840;52.122;5.404;2023-02-28T10:27:32;103364.72;;;5.64;57.10
71974;BME280;59840;52.122;5.404;2023-02-28T10:30:00;103356.97;;;5.27;54.52
71974;BME280;59840;52.122;5.404;2023-02-28T10:32:33;103364.63;;;5.38;53.55
71974;BME280;59840;52.122;5.404;2023-02-28T10:35:21;103359.44;;;5.28;55.04
71974;BME280;59840;52.122;5.404;2023-02-28T10:37:57;103353.66;;;5.07;55.19
71974;BME280;59840;52.122;5.404;2023-02-28T10:43:05;103371.44;;;5.03;56.32
71974;BME280;59840;52.122;5.404;2023-02-28T10:45:34;103368.78;;;5.13;53.97
71974;BME280;59840;52.122;5.404;2023-02-28T10:48:27;103364.41;;;5.04;53.82
71974;BME280;59840;52.122;5.404;2023-02-28T10:50:55;103365.66;;;5.00;53.89
71974;BME280;59840;52.122;5.404;2023-02-28T10:58:49;103349.72;;;4.93;53.35
71974;BME280;59840;52.122;5.404;2023-02-28T11:01:19;103348.03;;;5.02;53.32
71974;BME280;59840;52.122;5.404;2023-02-28T11:03:47;103342.66;;;5.03;53.52
71974;BME280;59840;52.122;5.404;2023-02-28T11:06:23;103343.66;;;4.93;51.27
71974;BME280;59840;52.122;5.404;2023-02-28T11:08:54;103342.44;;;4.87;52.44
71974;BME280;59840;52.122;5.404;2023-02-28T11:11:23;103338.63;;;5.09;53.18
71974;BME280;59840;52.122;5.404;2023-02-28T11:13:56;103340.19;;;5.02;49.82
71974;BME280;59840;52.122;5.404;2023-02-28T11:16:35;103330.25;;;4.78;50.07
71974;BME280;59840;52.122;5.404;2023-02-28T11:19:06;103322.81;;;4.83;52.18
71974;BME280;59840;52.122;5.404;2023-02-28T11:21:52;103324.78;;;4.99;51.62
71974;BME280;59840;52.122;5.404;2023-02-28T11:26:51;103332.03;;;5.05;50.74
71974;BME280;59840;52.122;5.404;2023-02-28T11:34:43;103326.03;;;4.95;51.47
71974;BME280;59840;52.122;5.404;2023-02-28T11:37:18;103322.09;;;5.09;51.73
71974;BME280;59840;52.122;5.404;2023-02-28T11:39:46;103312.31;;;5.11;50.39
71974;BME280;59840;52.122;5.404;2023-02-28T11:56:06;103305.81;;;5.32;49.06
71974;BME280;59840;52.122;5.404;2023-02-28T12:04:08;103303.44;;;5.39;50.38
71974;BME280;59840;52.122;5.404;2023-02-28T12:06:52;103305.22;;;5.38;50.92
71974;BME280;59840;52.122;5.404;2023-02-28T12:17:26;103293.03;;;5.47;49.70
71974;BME280;59840;52.122;5.404;2023-02-28T12:20:26;103291.25;;;5.48;49.40
71974;BME280;59840;52.122;5.404;2023-02-28T12:26:02;103283.28;;;5.57;49.10
71974;BME280;59840;52.122;5.404;2023-02-28T12:28:34;103288.22;;;5.60;48.13
71974;BME280;59840;52.122;5.404;2023-02-28T12:31:29;103275.56;;;5.73;48.69
71974;BME280;59840;52.122;5.404;2023-02-28T12:34:06;103270.94;;;5.67;47.88
71974;BME280;59840;52.122;5.404;2023-02-28T12:36:36;103278.13;;;5.65;46.95
71974;BME280;59840;52.122;5.404;2023-02-28T12:39:16;103277.22;;;5.57;47.74
71974;BME280;59840;52.122;5.404;2023-02-28T12:41:59;103278.00;;;5.49;48.71
71974;BME280;59840;52.122;5.404;2023-02-28T12:44:32;103286.69;;;5.50;49.15
71974;BME280;59840;52.122;5.404;2023-02-28T12:47:02;103277.75;;;5.60;48.99
71974;BME280;59840;52.122;5.404;2023-02-28T12:49:36;103275.66;;;5.64;48.26
71974;BME280;59840;52.122;5.404;2023-02-28T12:52:05;103274.69;;;5.65;46.89
71974;BME280;59840;52.122;5.404;2023-02-28T12:54:46;103261.28;;;5.68;49.01
71974;BME280;59840;52.122;5.404;2023-02-28T12:57:25;103271.91;;;5.84;47.15
71974;BME280;59840;52.122;5.404;2023-02-28T13:00:01;103268.53;;;5.74;48.10
71974;BME280;59840;52.122;5.404;2023-02-28T13:08:22;103256.19;;;5.84;45.95
71974;BME280;59840;52.122;5.404;2023-02-28T13:10:54;103243.75;;;5.86;48.79
71974;BME280;59840;52.122;5.404;2023-02-28T13:13:28;103241.59;;;6.08;48.33
71974;BME280;59840;52.122;5.404;2023-02-28T13:16:04;103247.47;;;6.01;48.29
71974;BME280;59840;52.122;5.404;2023-02-28T13:18:38;103252.34;;;5.96;46.88
71974;BME280;59840;52.122;5.404;2023-02-28T13:21:08;103249.66;;;5.88;46.83
71974;BME280;59840;52.122;5.404;2023-02-28T13:26:13;103247.09;;;5.96;46.24
71974;BME280;59840;52.122;5.404;2023-02-28T13:31:20;103246.91;;;5.72;44.57
71974;BME280;59840;52.122;5.404;2023-02-28T13:38:54;103227.72;;;5.89;46.96
71974;BME280;59840;52.122;5.404;2023-02-28T13:41:40;103227.41;;;5.92;46.32
71974;BME280;59840;52.122;5.404;2023-02-28T13:57:41;103225.34;;;5.78;43.31
71974;BME280;59840;52.122;5.404;2023-02-28T14:05:36;103212.06;;;5.97;45.52
71974;BME280;59840;52.122;5.404;2023-02-28T14:08:16;103206.41;;;6.10;46.01
71974;BME280;59840;52.122;5.404;2023-02-28T14:10:46;103195.44;;;6.15;45.94
71974;BME280;59840;52.122;5.404;2023-02-28T14:13:44;103197.91;;;6.16;46.26
71974;BME280;59840;52.122;5.404;2023-02-28T14:16:15;103197.72;;;6.10;45.40
71974;BME280;59840;52.122;5.404;2023-02-28T14:19:02;103204.25;;;6.05;45.14
71974;BME280;59840;52.122;5.404;2023-02-28T14:21:34;103203.56;;;6.03;44.97
71974;BME280;59840;52.122;5.404;2023-02-28T14:24:10;103197.97;;;5.98;43.86
71974;BME280;59840;52.122;5.404;2023-02-28T14:32:15;103198.66;;;6.00;45.56
71974;BME280;59840;52.122;5.404;2023-02-28T14:35:13;103192.91;;;5.97;46.43
71974;BME280;59840;52.122;5.404;2023-02-28T14:37:43;103195.72;;;6.03;45.76
71974;BME280;59840;52.122;5.404;2023-02-28T14:40:21;103204.34;;;5.96;44.64
71974;BME280;59840;52.122;5.404;2023-02-28T14:42:57;103189.59;;;5.95;46.86
71974;BME280;59840;52.122;5.404;2023-02-28T14:45:29;103192.59;;;6.00;46.81
71974;BME280;59840;52.122;5.404;2023-02-28T14:47:57;103188.16;;;6.00;45.26
71974;BME280;59840;52.122;5.404;2023-02-28T14:50:34;103186.47;;;5.91;44.95
71974;BME280;59840;52.122;5.404;2023-02-28T14:53:01;103192.88;;;5.89;45.12
71974;BME280;59840;52.122;5.404;2023-02-28T14:55:31;103183.84;;;5.91;45.66
71974;BME280;59840;52.122;5.404;2023-02-28T14:58:02;103181.59;;;5.96;46.19
71974;BME280;59840;52.122;5.404;2023-02-28T15:00:35;103192.72;;;5.98;45.93
71974;BME280;59840;52.122;5.404;2023-02-28T15:03:34;103187.13;;;5.93;45.20
71974;BME280;59840;52.122;5.404;2023-02-28T15:06:06;103188.72;;;5.86;44.43
71974;BME280;59840;52.122;5.404;2023-02-28T15:08:33;103195.63;;;5.87;45.31
71974;BME280;59840;52.122;5.404;2023-02-28T15:11:05;103196.28;;;5.89;44.58
71974;BME280;59840;52.122;5.404;2023-02-28T15:13:40;103190.69;;;5.84;44.40
71974;BME280;59840;52.122;5.404;2023-02-28T15:16:11;103191.50;;;5.85;45.87
71974;BME280;59840;52.122;5.404;2023-02-28T15:21:18;103193.66;;;5.89;45.64